Terminal Aerodrome Forecast
Issued by NWS

Home | Current Version | Previous Version | Text Only | Print | Product List | Glossary On
Versions: 1 2 3 4 5 6 7 8 9 10 11 12 13 14 15 16 17 18
000
FTUS43 KSGF 242300 RRA
TAFJLN
TAF
KJLN 242338Z 2500/2524 23010KT P6SM BKN200
     FM250300 21012KT P6SM OVC100 WS010/26040KT
     FM250700 25011KT P6SM VCSH SCT030 OVC050 WS020/32035KT
      TEMPO 2508/2512 -SHRA
     FM251200 28012KT P6SM OVC030
     FM251500 30020G30KT P6SM OVC025=

USA.gov is the U.S. government's official web portal to all federal, state and local government web resources and services.